PRB weather

Paso Robles Municipal Airport
Paso Robles, California, United States

Public forecast

Using degrees Fahrenheit for public forecast. Weather courtesy of forecast.io.

METAR (pilot weather report)

Retrieved 2019/08/18 20:53 UTC (17 minutes ago):

KPRB 182053Z AUTO 21011KT 10SM CLR 24/12 A2992 RMK AO2 SLP127 T02390117 56005 $

TAF (pilot weather forecast)

Retrieved 2019/08/18 18:30 UTC (3 hours ago):

TAF KPRB 181728Z 1818/1918 21010KT P6SM SKC FM182200 21018G28KT P6SM SKC FM190100 20012KT P6SM SKC FM190600 VRB03KT P6SM SKC FM191000 VRB03KT P6SM OVC006 FM191700 21008KT P6SM SKC